createdAt,value
2018-08-25T00:01:15.873Z,84.50
2018-08-25T00:03:56.520Z,84.60
2018-08-25T00:06:37.039Z,84.50
2018-08-25T00:09:17.724Z,84.40
2018-08-25T00:11:58.422Z,84.30
2018-08-25T00:14:39.076Z,84.20
2018-08-25T00:17:20.700Z,83.90
2018-08-25T00:20:01.311Z,83.70
2018-08-25T00:22:41.893Z,83.60
2018-08-25T00:25:22.482Z,83.50
2018-08-25T00:28:03.008Z,83.50
2018-08-25T00:30:48.691Z,83.60
2018-08-25T00:33:30.628Z,83.80
2018-08-25T00:36:11.495Z,83.90
2018-08-25T00:38:52.086Z,84.00
2018-08-25T00:41:33.559Z,84.20
2018-08-25T00:44:14.134Z,84.10
2018-08-25T00:46:54.707Z,84.20
2018-08-25T00:49:35.277Z,84.10
2018-08-25T00:52:15.874Z,84.10
2018-08-25T00:54:57.586Z,84.20
2018-08-25T00:57:39.403Z,84.70
2018-08-25T01:00:20.442Z,85.00
2018-08-25T01:03:01.087Z,85.50
2018-08-25T01:05:42.498Z,85.80
2018-08-25T01:08:23.096Z,86.10
2018-08-25T01:11:03.651Z,86.40
2018-08-25T01:13:44.995Z,86.40
2018-08-25T01:16:25.623Z,86.30
2018-08-25T01:19:07.080Z,86.50
2018-08-25T01:21:48.513Z,86.60
2018-08-25T01:24:29.297Z,86.40
2018-08-25T01:27:10.653Z,86.40
2018-08-25T01:29:51.215Z,86.70
2018-08-25T01:32:31.934Z,86.70
2018-08-25T01:35:12.582Z,87.50
2018-08-25T01:37:54.233Z,86.80
2018-08-25T01:40:35.760Z,86.90
2018-08-25T01:43:17.196Z,86.90
2018-08-25T01:45:57.763Z,86.90
2018-08-25T01:48:39.029Z,87.10
2018-08-25T01:51:20.444Z,87.00
2018-08-25T01:54:01.421Z,87.10
2018-08-25T01:56:42.869Z,87.10
2018-08-25T01:59:23.753Z,87.10
2018-08-25T02:02:05.180Z,86.90
2018-08-25T02:04:45.790Z,86.90
2018-08-25T02:07:26.384Z,87.00
2018-08-25T02:10:07.086Z,87.20
2018-08-25T02:12:48.565Z,87.50
2018-08-25T02:15:29.180Z,87.50
2018-08-25T02:18:09.779Z,87.50
2018-08-25T02:20:50.478Z,87.60
2018-08-25T02:23:31.026Z,87.50
2018-08-25T02:26:11.650Z,87.30
2018-08-25T02:28:52.666Z,87.00
2018-08-25T02:31:33.856Z,86.90
2018-08-25T02:34:14.478Z,86.80
2018-08-25T02:36:55.922Z,86.40
2018-08-25T02:39:37.403Z,86.20
2018-08-25T02:42:17.976Z,86.10
2018-08-25T02:44:58.644Z,85.90
2018-08-25T02:47:40.050Z,85.70
2018-08-25T02:50:20.780Z,85.50
2018-08-25T02:53:02.169Z,86.00
2018-08-25T02:55:43.705Z,85.70
2018-08-25T02:58:24.221Z,85.70
2018-08-25T03:01:05.709Z,85.50
2018-08-25T03:03:47.189Z,85.50
2018-08-25T03:06:28.485Z,85.40
2018-08-25T03:09:09.538Z,85.50
2018-08-25T03:11:50.517Z,86.10
2018-08-25T03:14:31.197Z,85.70
2018-08-25T03:17:11.777Z,85.80
2018-08-25T03:19:53.458Z,85.80
2018-08-25T03:22:34.945Z,85.70
2018-08-25T03:25:17.333Z,85.70
2018-08-25T03:27:57.977Z,85.80
2018-08-25T03:30:39.385Z,85.70
2018-08-25T03:33:20.005Z,85.90
2018-08-25T03:36:00.739Z,86.30
2018-08-25T03:38:41.230Z,86.90
2018-08-25T03:41:21.890Z,87.70
2018-08-25T03:44:02.507Z,88.40
2018-08-25T03:46:43.273Z,89.10
2018-08-25T03:49:24.697Z,89.60
2018-08-25T03:52:05.628Z,90.10
2018-08-25T03:54:46.946Z,90.20
2018-08-25T03:57:27.655Z,90.20
2018-08-25T04:00:09.279Z,90.20
2018-08-25T04:02:50.622Z,90.30
2018-08-25T04:05:31.796Z,90.20
2018-08-25T04:08:12.900Z,90.30
2018-08-25T04:10:53.894Z,90.10
2018-08-25T04:13:35.090Z,90.20
2018-08-25T04:16:15.658Z,90.30
2018-08-25T04:18:57.111Z,90.30
2018-08-25T04:21:38.947Z,90.30
2018-08-25T04:24:20.415Z,90.20
2018-08-25T04:27:01.963Z,90.30
2018-08-25T04:29:43.449Z,89.70
2018-08-25T04:32:24.066Z,89.70
2018-08-25T04:35:05.638Z,89.70
2018-08-25T04:37:46.199Z,89.50
2018-08-25T04:40:26.890Z,88.70
2018-08-25T04:43:08.460Z,88.20
2018-08-25T04:45:49.012Z,87.90
2018-08-25T04:48:29.654Z,88.40
2018-08-25T04:51:11.271Z,87.90
2018-08-25T04:53:53.069Z,86.70
2018-08-25T04:56:34.826Z,86.70
2018-08-25T04:59:15.752Z,86.80
2018-08-25T05:01:56.328Z,86.60
2018-08-25T05:04:37.874Z,86.40
2018-08-25T05:07:19.279Z,85.80
2018-08-25T05:10:00.752Z,85.30
2018-08-25T05:12:42.085Z,84.80
2018-08-25T05:15:22.765Z,85.40
2018-08-25T05:18:04.244Z,85.50
2018-08-25T05:20:45.724Z,85.50
2018-08-25T05:23:26.357Z,83.90
2018-08-25T05:26:08.277Z,83.30
2018-08-25T05:28:49.581Z,81.70
2018-08-25T05:31:30.106Z,75.80
2018-08-25T05:34:10.810Z,73.70
2018-08-25T05:36:51.493Z,72.00
2018-08-25T05:39:32.014Z,72.00
2018-08-25T05:42:12.770Z,72.00
2018-08-25T05:44:54.197Z,71.70
2018-08-25T05:47:35.787Z,72.60
2018-08-25T05:50:17.183Z,71.80
2018-08-25T05:52:58.461Z,72.40
2018-08-25T05:55:39.510Z,76.10
2018-08-25T05:58:21.058Z,75.20
2018-08-25T06:01:01.656Z,74.80
2018-08-25T06:03:42.230Z,75.60
2018-08-25T06:06:22.909Z,75.30
2018-08-25T06:09:05.410Z,75.40
2018-08-25T06:11:45.961Z,76.70
2018-08-25T06:14:26.650Z,77.80
2018-08-25T06:17:07.199Z,77.50
2018-08-25T06:19:48.678Z,76.80
2018-08-25T06:22:30.103Z,77.00
2018-08-25T06:25:10.813Z,76.60
2018-08-25T06:27:52.321Z,76.60
2018-08-25T06:30:32.953Z,77.10
2018-08-25T06:33:14.309Z,77.00
2018-08-25T06:35:54.958Z,76.90
2018-08-25T06:38:35.606Z,77.30
2018-08-25T06:41:16.258Z,77.40
2018-08-25T06:43:56.774Z,77.50
2018-08-25T06:46:37.373Z,77.40
2018-08-25T06:49:17.912Z,76.80
2018-08-25T06:51:59.973Z,76.20
2018-08-25T06:54:41.069Z,76.30
2018-08-25T06:57:21.654Z,76.90
2018-08-25T07:00:03.103Z,76.30
2018-08-25T07:02:43.665Z,75.00
2018-08-25T07:05:24.358Z,74.10
2018-08-25T07:08:04.905Z,73.40
2018-08-25T07:10:45.628Z,73.00
2018-08-25T07:13:27.040Z,72.90
2018-08-25T07:16:08.542Z,72.20
2018-08-25T07:18:49.708Z,71.80
2018-08-25T07:21:30.821Z,71.20
2018-08-25T07:24:12.031Z,70.80
2018-08-25T07:26:53.167Z,71.10
2018-08-25T07:29:34.622Z,71.40
2018-08-25T07:32:16.013Z,71.90
2018-08-25T07:34:57.507Z,71.50
2018-08-25T07:37:39.094Z,71.40
2018-08-25T07:40:19.730Z,70.50
2018-08-25T07:43:01.262Z,70.20
2018-08-25T07:45:42.007Z,70.40
2018-08-25T07:48:22.631Z,70.90
2018-08-25T07:51:04.071Z,71.30
2018-08-25T07:53:45.532Z,71.30
2018-08-25T07:56:26.140Z,71.60
2018-08-25T07:59:06.842Z,72.80
2018-08-25T08:01:47.390Z,72.60
2018-08-25T08:04:28.921Z,72.80
2018-08-25T08:07:10.517Z,72.40
2018-08-25T08:09:52.130Z,71.60
2018-08-25T08:12:33.689Z,72.00
2018-08-25T08:15:14.377Z,71.50
2018-08-25T08:17:54.955Z,70.70
2018-08-25T08:20:35.454Z,69.70
2018-08-25T08:23:16.169Z,67.80
2018-08-25T08:25:56.842Z,67.70
2018-08-25T08:28:37.379Z,66.50
2018-08-25T08:31:18.325Z,65.60
2018-08-25T08:33:59.689Z,64.40
2018-08-25T08:36:40.285Z,64.70
2018-08-25T08:39:20.836Z,64.00
2018-08-25T08:42:02.070Z,62.60
2018-08-25T08:44:42.962Z,61.80
2018-08-25T08:47:24.429Z,61.80
2018-08-25T08:50:05.203Z,62.00
2018-08-25T08:52:46.510Z,60.20
2018-08-25T08:55:27.612Z,61.30
2018-08-25T08:58:08.857Z,62.10
2018-08-25T09:00:50.405Z,63.00
2018-08-25T09:03:31.991Z,62.80
2018-08-25T09:06:12.513Z,63.00
2018-08-25T09:08:53.199Z,63.10
2018-08-25T09:11:34.042Z,63.80
2018-08-25T09:14:15.358Z,65.00
2018-08-25T09:16:55.917Z,64.00
2018-08-25T09:19:36.576Z,63.80
2018-08-25T09:22:17.972Z,63.20
2018-08-25T09:24:58.862Z,62.60
2018-08-25T09:27:39.399Z,61.30
2018-08-25T09:30:20.079Z,61.20
2018-08-25T09:33:00.749Z,62.00
2018-08-25T09:35:41.272Z,62.30
2018-08-25T09:38:21.859Z,61.60
2018-08-25T09:41:03.294Z,60.70
2018-08-25T09:43:43.972Z,60.20
2018-08-25T09:46:24.599Z,60.40
2018-08-25T09:49:05.217Z,61.00
2018-08-25T09:51:45.851Z,60.40
2018-08-25T09:54:26.538Z,59.90
2018-08-25T09:57:08.062Z,58.90
2018-08-25T09:59:49.679Z,60.00
2018-08-25T10:02:31.071Z,61.30
2018-08-25T10:05:11.761Z,61.80
2018-08-25T10:07:52.414Z,62.50
2018-08-25T10:10:32.942Z,62.50
2018-08-25T10:13:14.483Z,62.70
2018-08-25T10:15:55.760Z,64.20
2018-08-25T10:18:36.409Z,64.50
2018-08-25T10:21:17.847Z,64.60
2018-08-25T10:23:58.348Z,63.80
2018-08-25T10:26:39.180Z,63.90
2018-08-25T10:29:21.194Z,64.00
2018-08-25T10:32:02.339Z,63.90
2018-08-25T10:34:43.944Z,64.40
2018-08-25T10:37:25.401Z,64.70
2018-08-25T10:40:06.822Z,64.50
2018-08-25T10:42:48.377Z,65.50
2018-08-25T10:45:29.974Z,65.90
2018-08-25T10:48:11.597Z,65.40
2018-08-25T10:50:52.142Z,65.20
2018-08-25T10:53:33.637Z,64.40
2018-08-25T10:56:14.460Z,64.00
2018-08-25T10:58:55.177Z,64.10
2018-08-25T11:01:35.733Z,63.70
2018-08-25T11:04:16.369Z,64.50
2018-08-25T11:06:58.145Z,63.80
2018-08-25T11:09:39.462Z,63.80
2018-08-25T11:12:21.121Z,64.00
2018-08-25T11:15:02.581Z,63.40
2018-08-25T11:17:44.125Z,63.30
2018-08-25T11:20:25.596Z,63.90
2018-08-25T11:23:06.953Z,63.20
2018-08-25T11:25:47.605Z,63.10
2018-08-25T11:28:29.009Z,63.50
2018-08-25T11:31:09.661Z,63.90
2018-08-25T11:33:50.961Z,64.10
2018-08-25T11:36:31.891Z,63.60
2018-08-25T11:39:12.810Z,64.40
2018-08-25T11:41:54.029Z,64.40
2018-08-25T11:44:35.374Z,64.50
2018-08-25T11:47:17.626Z,65.00
2018-08-25T11:49:58.651Z,65.00
2018-08-25T11:52:39.181Z,64.20
2018-08-25T11:55:19.869Z,64.20
2018-08-25T11:58:00.433Z,64.00
2018-08-25T12:00:41.235Z,64.40
2018-08-25T12:03:22.660Z,64.40
2018-08-25T12:06:03.201Z,64.30
2018-08-25T12:08:45.296Z,65.00
2018-08-25T12:11:26.041Z,65.20
2018-08-25T12:14:06.587Z,65.10
2018-08-25T12:16:47.226Z,65.40
2018-08-25T12:19:28.050Z,65.50
2018-08-25T12:22:09.582Z,65.50
2018-08-25T12:24:51.039Z,66.80
2018-08-25T12:27:31.697Z,66.60
2018-08-25T12:30:12.206Z,66.30
2018-08-25T12:32:52.923Z,66.50
2018-08-25T12:35:33.602Z,66.70
2018-08-25T12:38:15.041Z,66.80
2018-08-25T12:40:55.841Z,65.80
2018-08-25T12:43:37.439Z,66.10
2018-08-25T12:46:17.920Z,66.20
2018-08-25T12:48:58.467Z,66.40
2018-08-25T12:51:39.412Z,67.00
2018-08-25T12:54:20.721Z,67.60
2018-08-25T12:57:01.373Z,67.40
2018-08-25T12:59:42.508Z,67.20
2018-08-25T13:02:23.680Z,67.20
2018-08-25T13:05:05.259Z,66.70
2018-08-25T13:07:46.847Z,67.30
2018-08-25T13:10:28.933Z,67.50
2018-08-25T13:13:09.981Z,67.60
2018-08-25T13:15:51.370Z,67.90
2018-08-25T13:18:31.982Z,68.30
2018-08-25T13:21:12.641Z,68.70
2018-08-25T13:23:54.197Z,69.90
2018-08-25T13:26:34.789Z,70.40
2018-08-25T13:29:16.369Z,70.10
2018-08-25T13:31:57.750Z,70.00
2018-08-25T13:34:38.314Z,70.40
2018-08-25T13:37:19.067Z,71.10
2018-08-25T13:39:59.596Z,70.80
2018-08-25T13:42:40.159Z,70.40
2018-08-25T13:45:20.798Z,70.10
2018-08-25T13:48:01.334Z,69.60
2018-08-25T13:50:42.914Z,69.50
2018-08-25T13:53:24.386Z,68.80
2018-08-25T13:56:05.842Z,69.20
2018-08-25T13:58:46.453Z,69.00
2018-08-25T14:01:27.145Z,68.70
2018-08-25T14:04:08.634Z,69.00
2018-08-25T14:06:50.221Z,68.30
2018-08-25T14:09:31.606Z,68.20
2018-08-25T14:12:12.705Z,69.20
2018-08-25T14:14:53.759Z,69.20
2018-08-25T14:17:35.235Z,69.30
2018-08-25T14:20:15.725Z,69.20
2018-08-25T14:22:56.916Z,70.10
2018-08-25T14:25:37.737Z,70.00
2018-08-25T14:28:18.378Z,71.00
2018-08-25T14:30:58.890Z,70.80
2018-08-25T14:33:39.369Z,71.10
2018-08-25T14:36:20.152Z,71.60
2018-08-25T14:39:01.447Z,73.30
2018-08-25T14:41:42.913Z,73.60
2018-08-25T14:44:23.398Z,74.40
2018-08-25T14:47:04.071Z,74.50
2018-08-25T14:49:45.588Z,75.30
2018-08-25T14:52:27.422Z,75.80
2018-08-25T14:55:08.432Z,75.80
2018-08-25T14:57:48.959Z,76.60
2018-08-25T15:00:29.585Z,77.20
2018-08-25T15:03:10.488Z,78.40
2018-08-25T15:05:52.010Z,78.80
2018-08-25T15:08:33.435Z,79.80
2018-08-25T15:11:14.879Z,80.00
2018-08-25T15:13:56.277Z,80.00
2018-08-25T15:16:36.878Z,81.20
2018-08-25T15:19:17.527Z,81.70
2018-08-25T15:21:58.524Z,81.70
2018-08-25T15:24:40.048Z,81.40
2018-08-25T15:27:20.596Z,81.90
2018-08-25T15:30:01.314Z,82.80
2018-08-25T15:32:42.788Z,82.60
2018-08-25T15:35:23.429Z,82.10
2018-08-25T15:38:04.090Z,82.50
2018-08-25T15:40:44.845Z,82.60
2018-08-25T15:43:26.254Z,82.10
2018-08-25T15:46:06.854Z,82.70
2018-08-25T15:48:47.562Z,83.40
2018-08-25T15:51:29.021Z,83.40
2018-08-25T15:54:10.922Z,83.70
2018-08-25T15:56:52.230Z,83.60
2018-08-25T15:59:32.936Z,83.40
2018-08-25T16:02:14.720Z,83.50
2018-08-25T16:04:56.917Z,83.60
2018-08-25T16:07:38.009Z,83.20
2018-08-25T16:10:19.213Z,83.20
2018-08-25T16:13:00.611Z,83.60
2018-08-25T16:15:41.768Z,84.10
2018-08-25T16:18:22.924Z,84.10
2018-08-25T16:21:03.646Z,84.00
2018-08-25T16:23:44.162Z,84.70
2018-08-25T16:26:24.783Z,84.80
2018-08-25T16:29:06.293Z,83.80
2018-08-25T16:31:46.858Z,83.20
2018-08-25T16:34:28.305Z,83.20
2018-08-25T16:37:08.991Z,83.40
2018-08-25T16:39:50.358Z,83.50
2018-08-25T16:42:31.293Z,84.40
2018-08-25T16:45:12.737Z,85.00
2018-08-25T16:47:54.225Z,85.40
2018-08-25T16:50:34.859Z,85.60
2018-08-25T16:53:16.410Z,84.90
2018-08-25T16:55:58.068Z,84.70
2018-08-25T16:58:39.266Z,85.10
2018-08-25T17:01:20.824Z,85.80
2018-08-25T17:04:02.352Z,85.90
2018-08-25T17:06:42.954Z,85.80
2018-08-25T17:09:23.664Z,84.60
2018-08-25T17:12:04.913Z,84.70
2018-08-25T17:14:45.824Z,85.40
2018-08-25T17:17:26.449Z,85.20
2018-08-25T17:20:06.966Z,84.40
2018-08-25T17:22:47.534Z,84.70
2018-08-25T17:25:28.237Z,84.30
2018-08-25T17:28:09.716Z,84.00
2018-08-25T17:30:50.443Z,83.60
2018-08-25T17:33:31.141Z,84.00
2018-08-25T17:36:11.748Z,84.90
2018-08-25T17:38:52.374Z,84.90
2018-08-25T17:41:33.189Z,84.30
2018-08-25T17:44:14.523Z,82.90
2018-08-25T17:46:55.234Z,83.00
2018-08-25T17:49:35.800Z,82.60
2018-08-25T17:52:16.444Z,82.70
2018-08-25T17:54:57.103Z,83.40
2018-08-25T17:57:38.799Z,82.50
2018-08-25T18:00:20.094Z,82.90
2018-08-25T18:03:00.670Z,81.60
2018-08-25T18:05:41.222Z,81.90
2018-08-25T18:08:21.758Z,82.70
2018-08-25T18:11:02.460Z,82.10
2018-08-25T18:13:42.974Z,82.40
2018-08-25T18:16:23.773Z,82.10
2018-08-25T18:19:04.341Z,82.90
2018-08-25T18:21:44.959Z,82.20
2018-08-25T18:24:25.670Z,83.10
2018-08-25T18:27:06.258Z,81.90
2018-08-25T18:29:47.695Z,82.10
2018-08-25T18:32:28.385Z,82.10
2018-08-25T18:35:09.893Z,82.90
2018-08-25T18:37:51.257Z,81.80
2018-08-25T18:40:31.890Z,82.40
2018-08-25T18:43:12.665Z,82.60
2018-08-25T18:45:54.514Z,82.80
2018-08-25T18:48:35.677Z,81.80
2018-08-25T18:51:16.310Z,81.20
2018-08-25T18:53:57.806Z,81.60
2018-08-25T18:56:39.317Z,82.30
2018-08-25T18:59:20.934Z,81.90
2018-08-25T19:02:02.067Z,81.30
2018-08-25T19:04:43.172Z,81.50
2018-08-25T19:07:24.718Z,80.60
2018-08-25T19:10:05.329Z,80.20
2018-08-25T19:12:46.026Z,80.20
2018-08-25T19:15:27.601Z,78.90
2018-08-25T19:18:08.167Z,79.30
2018-08-25T19:20:48.860Z,79.70
2018-08-25T19:23:29.468Z,80.00
2018-08-25T19:26:10.205Z,78.60
2018-08-25T19:28:51.659Z,77.60
2018-08-25T19:31:32.330Z,78.20
2018-08-25T19:34:12.922Z,78.30
2018-08-25T19:36:53.953Z,78.50
2018-08-25T19:39:35.234Z,78.60
2018-08-25T19:42:15.856Z,79.00
2018-08-25T19:44:56.444Z,78.50
2018-08-25T19:47:37.039Z,78.70
2018-08-25T19:50:17.665Z,78.20
2018-08-25T19:52:58.201Z,77.10
2018-08-25T19:55:39.709Z,78.20
2018-08-25T19:58:20.335Z,78.90
2018-08-25T20:01:01.033Z,77.30
2018-08-25T20:03:43.084Z,78.30
2018-08-25T20:06:24.020Z,77.60
2018-08-25T20:09:05.196Z,77.90
2018-08-25T20:11:46.300Z,77.60
2018-08-25T20:14:27.754Z,77.50
2018-08-25T20:17:09.250Z,77.30
2018-08-25T20:19:50.480Z,77.20
2018-08-25T20:22:31.366Z,77.10
2018-08-25T20:25:11.974Z,77.50
2018-08-25T20:27:52.577Z,77.90
2018-08-25T20:30:33.199Z,77.60
2018-08-25T20:33:14.666Z,77.50
2018-08-25T20:35:56.265Z,77.00
2018-08-25T20:38:37.749Z,76.80
2018-08-25T20:41:18.326Z,77.40
2018-08-25T20:43:59.794Z,77.20
2018-08-25T20:46:40.453Z,77.40
2018-08-25T20:49:20.931Z,77.50
2018-08-25T20:52:01.555Z,77.70
2018-08-25T20:54:42.161Z,78.70
2018-08-25T20:57:23.720Z,78.30
2018-08-25T21:00:05.134Z,78.40
2018-08-25T21:02:45.998Z,77.70
2018-08-25T21:05:27.254Z,77.50
2018-08-25T21:08:08.415Z,77.80
2018-08-25T21:10:49.410Z,78.50
2018-08-25T21:13:30.854Z,78.60
2018-08-25T21:16:12.223Z,77.70
2018-08-25T21:18:52.847Z,77.20
2018-08-25T21:21:34.318Z,77.40
2018-08-25T21:24:15.969Z,78.30
2018-08-25T21:26:58.145Z,78.30
2018-08-25T21:29:38.928Z,78.30
2018-08-25T21:32:19.645Z,77.90
2018-08-25T21:35:01.186Z,78.30
2018-08-25T21:37:42.693Z,77.30
2018-08-25T21:40:24.209Z,77.40
2018-08-25T21:43:05.725Z,77.60
2018-08-25T21:45:46.496Z,77.80
2018-08-25T21:48:28.008Z,76.90
2018-08-25T21:51:09.989Z,76.70
2018-08-25T21:53:51.097Z,76.50
2018-08-25T21:56:32.629Z,76.80
2018-08-25T21:59:14.127Z,76.70
2018-08-25T22:01:57.585Z,77.20
2018-08-25T22:04:38.474Z,77.10
2018-08-25T22:07:19.341Z,76.90
2018-08-25T22:10:01.425Z,76.90
2018-08-25T22:12:42.342Z,77.40
2018-08-25T22:15:23.113Z,77.80
2018-08-25T22:18:04.538Z,77.50
2018-08-25T22:20:45.222Z,77.10
2018-08-25T22:23:25.967Z,77.10
2018-08-25T22:26:06.620Z,76.80
2018-08-25T22:28:47.261Z,76.90
2018-08-25T22:31:27.831Z,77.00
2018-08-25T22:34:08.381Z,76.70
2018-08-25T22:36:49.150Z,76.70
2018-08-25T22:39:29.846Z,76.90
2018-08-25T22:42:11.355Z,77.00
2018-08-25T22:44:51.960Z,76.80
2018-08-25T22:47:32.577Z,76.70
2018-08-25T22:50:13.249Z,76.70
2018-08-25T22:52:54.661Z,76.90
2018-08-25T22:55:35.409Z,76.70
2018-08-25T22:58:16.917Z,76.90
2018-08-25T23:00:58.558Z,77.30
2018-08-25T23:03:39.936Z,76.70
2018-08-25T23:06:20.654Z,76.60
2018-08-25T23:09:01.329Z,76.60
2018-08-25T23:11:41.909Z,76.50
2018-08-25T23:14:22.534Z,77.30
2018-08-25T23:17:03.296Z,77.40
2018-08-25T23:19:43.855Z,77.70
2018-08-25T23:22:25.907Z,77.40
2018-08-25T23:25:06.814Z,77.40
2018-08-25T23:27:47.383Z,76.60
2018-08-25T23:30:28.159Z,76.20
2018-08-25T23:33:08.883Z,76.70
2018-08-25T23:35:49.415Z,76.50
2018-08-25T23:38:30.881Z,76.60
2018-08-25T23:41:11.829Z,77.30
2018-08-25T23:43:52.397Z,77.70
2018-08-25T23:46:33.090Z,77.70
2018-08-25T23:49:14.578Z,76.90
2018-08-25T23:51:55.478Z,76.30
2018-08-25T23:54:37.533Z,76.60
2018-08-25T23:57:18.605Z,76.80
2018-08-25T23:59:59.202Z,76.20
